AirNav   TITAN Aviation Fuels
 
 983 users online  

2AZ0 Helicopter Transport Inc/Office Heliport
Phoenix, Arizona, USA

GOING TO PHOENIX?


FAA INFORMATION EFFECTIVE 08 SEPTEMBER 2022

Location

FAA Identifier: 2AZ0
Lat/Long: 33-27-00.1590N 111-58-48.5220W
33-27.002650N 111-58.808700W
33.4500442,-111.9801450
(estimated)
Elevation: 1160 ft. / 354 m (estimated)
Variation: 13E (1985)
From city: 5 miles NE of PHOENIX, AZ
Time zone: UTC -7 (year round; does not observe DST)
Zip code: 85008

Heliport Operations

Heliport use: Private use. Permission required prior to landing
Activation date: 02/1986
Control tower: no
ARTCC: ALBUQUERQUE CENTER
FSS: PRESCOTT FLIGHT SERVICE STATION
Attendance: MON-FRI 0900-1700
Wind indicator: lighted
Segmented circle: yes

Heliport Communications

WX ASOS at PHX (1.8 nm SW): PHONE 602-231-8557
WX ASOS at SDL (11 nm N): PHONE 480-483-3049
WX ASOS at FFZ (13 nm E): PHONE 480-641-4111
WX AWOS-3PT at CHD (14 nm SE): PHONE 480-814-9952
WX ASOS at DVT (15 nm N): 126.5 (623-587-7764)
WX AWOS-3 at GEU (16 nm W): PHONE 623-877-8609
WX AWOS-3 at IWA (18 nm SE): 133.5 (480-988-9428)

Nearby radio navigation aids

VOR radial/distance  VOR name  Freq  Var
PXRr322/1.1PHOENIX VORTAC115.6012E
IWAr285/18.7WILLIE VORTAC113.3013E
TFDr342/34.0STANFIELD VORTAC114.8012E

Heliport Services

Runway Information

Helipad H1

Dimensions: 197 x 110 ft. / 60 x 34 m
Surface: asphalt
Traffic pattern: leftleft
Obstructions: 200 ft. tower

Heliport Ownership and Management from official FAA records

Ownership: Privately-owned
Owner: EDWARD & LOUIS SPELTS
4633 E. VAN BUREN ST., STE.A
PHOENIX, AZ 85008
Phone 602-244-9810
Manager: EDWARD & LOUIS SPELTS
4633 E. VAN BUREN ST., STE.A
PHOENIX, AZ 85008
Phone 602-244-9810

Additional Remarks

FOR CD CTC PHOENIX APCH AT 602-306-2565.

Instrument Procedures

There are no published instrument procedures at 2AZ0.

Some nearby airports with instrument procedures:

KPHX - Phoenix Sky Harbor International Airport (2 nm SW)
P19 - Stellar Airpark (10 nm S)
KSDL - Scottsdale Airport (11 nm N)
KFFZ - Falcon Field Airport (13 nm E)
KCHD - Chandler Municipal Airport (14 nm SE)
KDVT - Phoenix Deer Valley Airport (15 nm N)
KGEU - Glendale Municipal Airport (16 nm W)
KIWA - Phoenix-Mesa Gateway Airport (18 nm SE)
KGYR - Phoenix Goodyear Airport (20 nm W)
 
Loc | Ops | Rwys | IFR | FBO | Links
Com | Nav | Svcs | Stats | Notes
Area around 2AZ0 (Helicopter Transport Inc/Office Heliport)
 
Road maps at: MapQuest Bing Google
 
Aerial photo
No photo
 
Sectional chart

 
Airport distance calculator
Flying to Helicopter Transport Inc/Office Heliport? Find the distance to fly.

From to 2AZ0

Sunrise and sunset
Times for 02-Oct-2022
 Local
(UTC-7)
 Zulu
(UTC)
Morning civil twilight05:5912:59
Sunrise06:2413:24
Sunset18:1101:11
Evening civil twilight18:3501:35

Current date and time
Zulu (UTC)  02-Oct-2022 22:18:46
Local (UTC-7)  02-Oct-2022 15:18:46
 
METAR
KPHX 
4nm W 
022151Z 17010G15KT 10SM FEW100 SCT250 36/11 A2983 RMK AO2 SLP079 CB DSNT NW-N TCU DSNT SE T03560111 $
KSDL 
10nm N 
022153Z 25008KT 10SM CLR 34/11 A2987 RMK AO2 SLP088 T03390111
KFFZ 
13nm E 
022154Z AUTO 21011G17KT 10SM CLR 35/11 A2985 RMK AO2 SLP083 T03500106
KCHD 
14nm SE 
022147Z 00000KT 10SM FEW100 35/12 A2985
KDVT 
15nm N 
022153Z 29004KT 10SM CLR 33/12 A2986 RMK AO2 SLP085 T03330117
KGEU 
17nm W 
022158Z VRB04KT 10SM SCT100 35/12 A2983
KIWA 
19nm SE 
022150Z 27006KT 10SM CLR 34/11 A2986
KGYR 
19nm W 
022147Z VRB06KT 10SM SCT100 SCT250 35/14 A2986
KLUF 
20nm W 
022155Z AUTO 16004KT 10SM CLR 35/12 A2983 RMK AO2 SLP085 T03510115 $
TAF
KPHX 
4nm W 
021720Z 0218/0324 16007KT P6SM FEW100 FEW150 FM022200 21007KT P6SM FEW100 FEW150 FM030000 25006KT P6SM FEW100 FEW150 FM030400 10005KT P6SM FEW100 SCT150 SCT250 FM031700 14008KT P6SM FEW100 FEW150 FM032100 28008KT P6SM FEW100 FEW150
KSDL 
10nm N 
021720Z 0218/0318 VRB04KT P6SM FEW100 FEW150 FM022100 21007KT P6SM FEW100 FEW150 FM030300 04005KT P6SM FEW100 SCT150 SCT250 FM030800 VRB03KT P6SM FEW100 FEW150
KDVT 
15nm N 
021720Z 0218/0318 18008KT P6SM FEW100 FEW150 FM022200 23009KT P6SM FEW100 FEW150 FM030400 03008KT P6SM FEW100 SCT150 SCT250 FM030900 VRB04KT P6SM FEW100 FEW150
KIWA 
19nm SE 
021720Z 0218/0318 18008KT P6SM FEW100 FEW150 FM022200 22007KT P6SM FEW100 FEW150 FM030000 26006KT P6SM FEW100 FEW150 FM030300 07005KT P6SM FEW100 SCT150 SCT250 FM030500 13008KT P6SM FEW100 FEW150
NOTAMs
Click for the latest NOTAMs
NOTAMs are issued by the DoD/FAA and will open in a separate window not controlled by AirNav.

 

 
 

Would you like to see your business listed on this page?

 If your business provides an interesting product or service to pilots, flight crews, aircraft, or users of the Helicopter Transport Inc/Office Heliport, you should consider listing it here.  To start the listing process, click on the button below
 
Add a business
 

Other Pages about Helicopter Transport Inc/Office Heliport

Update a link
 
Copyright © AirNav, LLC. All rights reserved. Privacy Policy  Contact